sensor_id;sensor_type;location;lat;lon;timestamp;temperature;humidity
7796;DHT22;3942;51.518;6.912;2023-08-21T00:01:16;21.00;1.00
7796;DHT22;3942;51.518;6.912;2023-08-21T00:06:17;20.90;1.00
7796;DHT22;3942;51.518;6.912;2023-08-21T00:11:21;21.00;1.00
7796;DHT22;3942;51.518;6.912;2023-08-21T00:16:23;21.00;1.00
7796;DHT22;3942;51.518;6.912;2023-08-21T00:26:28;21.30;99.90
7796;DHT22;3942;51.518;6.912;2023-08-21T00:36:32;20.80;1.00
7796;DHT22;3942;51.518;6.912;2023-08-21T00:41:35;20.70;1.00
7796;DHT22;3942;51.518;6.912;2023-08-21T00:46:37;20.70;1.00
7796;DHT22;3942;51.518;6.912;2023-08-21T00:56:42;20.50;99.90
7796;DHT22;3942;51.518;6.912;2023-08-21T01:01:45;20.40;99.90
7796;DHT22;3942;51.518;6.912;2023-08-21T01:06:48;20.40;99.90
7796;DHT22;3942;51.518;6.912;2023-08-21T01:11:56;20.50;99.90
7796;DHT22;3942;51.518;6.912;2023-08-21T01:17:00;20.50;99.90
7796;DHT22;3942;51.518;6.912;2023-08-21T01:27:09;20.40;1.00
7796;DHT22;3942;51.518;6.912;2023-08-21T01:32:29;20.40;1.00
7796;DHT22;3942;51.518;6.912;2023-08-21T01:37:34;20.40;99.90
7796;DHT22;3942;51.518;6.912;2023-08-21T01:42:38;20.60;99.90
7796;DHT22;3942;51.518;6.912;2023-08-21T01:47:40;20.30;99.90
7796;DHT22;3942;51.518;6.912;2023-08-21T01:57:45;20.30;1.00
7796;DHT22;3942;51.518;6.912;2023-08-21T02:02:47;20.20;1.00
7796;DHT22;3942;51.518;6.912;2023-08-21T02:07:49;20.30;1.00
7796;DHT22;3942;51.518;6.912;2023-08-21T02:12:52;20.20;99.90
7796;DHT22;3942;51.518;6.912;2023-08-21T02:17:54;20.10;99.90
7796;DHT22;3942;51.518;6.912;2023-08-21T02:28:00;19.90;99.90
7796;DHT22;3942;51.518;6.912;2023-08-21T02:33:02;19.80;99.90
7796;DHT22;3942;51.518;6.912;2023-08-21T02:38:04;19.80;1.00
7796;DHT22;3942;51.518;6.912;2023-08-21T02:43:08;19.80;1.00
7796;DHT22;3942;51.518;6.912;2023-08-21T02:48:09;19.70;99.90
7796;DHT22;3942;51.518;6.912;2023-08-21T02:53:11;19.60;99.90
7796;DHT22;3942;51.518;6.912;2023-08-21T02:58:14;18.10;99.90
7796;DHT22;3942;51.518;6.912;2023-08-21T03:03:16;19.70;99.90
7796;DHT22;3942;51.518;6.912;2023-08-21T03:08:18;19.60;99.90
7796;DHT22;3942;51.518;6.912;2023-08-21T03:13:21;19.60;92.90
7796;DHT22;3942;51.518;6.912;2023-08-21T03:18:23;19.60;51.70
7796;DHT22;3942;51.518;6.912;2023-08-21T03:23:25;19.60;1.00
7796;DHT22;3942;51.518;6.912;2023-08-21T03:28:28;19.60;1.00
7796;DHT22;3942;51.518;6.912;2023-08-21T03:33:30;19.60;1.00
7796;DHT22;3942;51.518;6.912;2023-08-21T03:38:31;19.60;1.00
7796;DHT22;3942;51.518;6.912;2023-08-21T03:43:35;19.50;1.00
7796;DHT22;3942;51.518;6.912;2023-08-21T03:58:42;19.40;1.00
7796;DHT22;3942;51.518;6.912;2023-08-21T04:08:46;19.40;1.00
7796;DHT22;3942;51.518;6.912;2023-08-21T04:13:49;19.40;1.00
7796;DHT22;3942;51.518;6.912;2023-08-21T04:18:51;19.30;1.00
7796;DHT22;3942;51.518;6.912;2023-08-21T04:23:53;19.50;1.00
7796;DHT22;3942;51.518;6.912;2023-08-21T04:28:56;19.40;1.00
7796;DHT22;3942;51.518;6.912;2023-08-21T04:44:03;19.40;1.00
7796;DHT22;3942;51.518;6.912;2023-08-21T04:49:05;19.40;1.00
7796;DHT22;3942;51.518;6.912;2023-08-21T04:59:11;19.20;1.00
7796;DHT22;3942;51.518;6.912;2023-08-21T05:04:13;19.30;44.50
7796;DHT22;3942;51.518;6.912;2023-08-21T05:14:18;19.30;99.90
7796;DHT22;3942;51.518;6.912;2023-08-21T05:19:20;19.50;1.00
7796;DHT22;3942;51.518;6.912;2023-08-21T05:24:22;19.40;2.90
7796;DHT22;3942;51.518;6.912;2023-08-21T05:29:25;19.50;99.90
7796;DHT22;3942;51.518;6.912;2023-08-21T05:34:27;19.60;99.90
7796;DHT22;3942;51.518;6.912;2023-08-21T05:39:29;19.90;99.90
7796;DHT22;3942;51.518;6.912;2023-08-21T05:44:33;19.80;99.90
7796;DHT22;3942;51.518;6.912;2023-08-21T05:49:34;20.00;99.90
7796;DHT22;3942;51.518;6.912;2023-08-21T05:54:36;20.20;99.90
7796;DHT22;3942;51.518;6.912;2023-08-21T05:59:43;20.30;44.40
7796;DHT22;3942;51.518;6.912;2023-08-21T06:04:46;20.60;99.90
7796;DHT22;3942;51.518;6.912;2023-08-21T06:09:48;20.80;99.90
7796;DHT22;3942;51.518;6.912;2023-08-21T06:14:51;20.90;99.90
7796;DHT22;3942;51.518;6.912;2023-08-21T06:19:53;21.20;1.00
7796;DHT22;3942;51.518;6.912;2023-08-21T06:24:55;21.50;1.00
7796;DHT22;3942;51.518;6.912;2023-08-21T06:29:58;21.60;1.00
7796;DHT22;3942;51.518;6.912;2023-08-21T06:34:59;21.70;99.90
7796;DHT22;3942;51.518;6.912;2023-08-21T06:45:06;22.40;1.00
7796;DHT22;3942;51.518;6.912;2023-08-21T06:50:09;22.50;1.00
7796;DHT22;3942;51.518;6.912;2023-08-21T06:55:11;22.40;1.00
7796;DHT22;3942;51.518;6.912;2023-08-21T07:00:14;22.30;1.00
7796;DHT22;3942;51.518;6.912;2023-08-21T07:05:16;22.40;1.00
7796;DHT22;3942;51.518;6.912;2023-08-21T07:10:18;22.20;99.90
7796;DHT22;3942;51.518;6.912;2023-08-21T07:15:22;22.50;99.90
7796;DHT22;3942;51.518;6.912;2023-08-21T07:20:23;22.60;99.90
7796;DHT22;3942;51.518;6.912;2023-08-21T07:25:25;22.50;99.90
7796;DHT22;3942;51.518;6.912;2023-08-21T07:30:30;22.40;95.90
7796;DHT22;3942;51.518;6.912;2023-08-21T07:35:32;22.40;5.40
7796;DHT22;3942;51.518;6.912;2023-08-21T07:40:34;22.90;1.00
7796;DHT22;3942;51.518;6.912;2023-08-21T07:45:38;23.30;1.00
7796;DHT22;3942;51.518;6.912;2023-08-21T07:50:40;23.10;1.00
7796;DHT22;3942;51.518;6.912;2023-08-21T07:55:42;23.40;1.00
7796;DHT22;3942;51.518;6.912;2023-08-21T08:00:45;23.70;99.90
7796;DHT22;3942;51.518;6.912;2023-08-21T08:10:49;24.20;99.90
7796;DHT22;3942;51.518;6.912;2023-08-21T08:15:52;24.90;99.90
7796;DHT22;3942;51.518;6.912;2023-08-21T08:20:54;25.40;99.90
7796;DHT22;3942;51.518;6.912;2023-08-21T08:30:59;25.70;99.90
7796;DHT22;3942;51.518;6.912;2023-08-21T08:41:07;25.60;99.90
7796;DHT22;3942;51.518;6.912;2023-08-21T08:46:13;25.80;53.10
7796;DHT22;3942;51.518;6.912;2023-08-21T08:56:17;26.20;1.00
7796;DHT22;3942;51.518;6.912;2023-08-21T09:01:20;26.30;1.00
7796;DHT22;3942;51.518;6.912;2023-08-21T09:06:22;26.50;1.00
7796;DHT22;3942;51.518;6.912;2023-08-21T09:11:24;26.40;1.00
7796;DHT22;3942;51.518;6.912;2023-08-21T09:16:27;26.60;1.00
7796;DHT22;3942;51.518;6.912;2023-08-21T09:31:36;26.70;1.00
7796;DHT22;3942;51.518;6.912;2023-08-21T09:36:38;26.80;1.00
7796;DHT22;3942;51.518;6.912;2023-08-21T09:46:48;27.00;1.00
7796;DHT22;3942;51.518;6.912;2023-08-21T09:56:53;26.80;1.00
7796;DHT22;3942;51.518;6.912;2023-08-21T10:01:58;27.10;1.00
7796;DHT22;3942;51.518;6.912;2023-08-21T10:07:02;27.10;1.00
7796;DHT22;3942;51.518;6.912;2023-08-21T10:12:05;26.90;1.00
7796;DHT22;3942;51.518;6.912;2023-08-21T10:17:09;27.10;1.00
7796;DHT22;3942;51.518;6.912;2023-08-21T10:22:11;27.30;1.00
7796;DHT22;3942;51.518;6.912;2023-08-21T10:27:13;27.20;1.00
7796;DHT22;3942;51.518;6.912;2023-08-21T10:32:22;27.00;99.90
7796;DHT22;3942;51.518;6.912;2023-08-21T10:37:24;27.20;1.00
7796;DHT22;3942;51.518;6.912;2023-08-21T10:42:39;27.30;1.00
7796;DHT22;3942;51.518;6.912;2023-08-21T10:47:42;27.40;1.00
7796;DHT22;3942;51.518;6.912;2023-08-21T10:52:48;27.50;1.00
7796;DHT22;3942;51.518;6.912;2023-08-21T11:02:56;27.40;99.90
7796;DHT22;3942;51.518;6.912;2023-08-21T11:07:57;27.30;99.90
7796;DHT22;3942;51.518;6.912;2023-08-21T11:12:59;27.40;99.90
7796;DHT22;3942;51.518;6.912;2023-08-21T11:18:03;27.20;99.90
7796;DHT22;3942;51.518;6.912;2023-08-21T11:23:06;27.40;99.90
7796;DHT22;3942;51.518;6.912;2023-08-21T11:28:08;27.40;99.90
7796;DHT22;3942;51.518;6.912;2023-08-21T11:33:12;27.40;99.90
7796;DHT22;3942;51.518;6.912;2023-08-21T11:38:16;27.40;99.90
7796;DHT22;3942;51.518;6.912;2023-08-21T11:48:21;27.50;99.90
7796;DHT22;3942;51.518;6.912;2023-08-21T11:53:34;27.70;99.90
7796;DHT22;3942;51.518;6.912;2023-08-21T11:58:38;27.40;99.90
7796;DHT22;3942;51.518;6.912;2023-08-21T12:03:41;27.40;99.90
7796;DHT22;3942;51.518;6.912;2023-08-21T12:13:45;27.30;99.90
7796;DHT22;3942;51.518;6.912;2023-08-21T12:18:48;27.20;99.90
7796;DHT22;3942;51.518;6.912;2023-08-21T12:23:51;27.20;99.90
7796;DHT22;3942;51.518;6.912;2023-08-21T12:33:56;27.30;99.90
7796;DHT22;3942;51.518;6.912;2023-08-21T12:39:00;27.20;99.90
7796;DHT22;3942;51.518;6.912;2023-08-21T12:44:02;27.30;99.90
7796;DHT22;3942;51.518;6.912;2023-08-21T12:49:05;27.30;99.90
7796;DHT22;3942;51.518;6.912;2023-08-21T12:54:07;27.40;99.90
7796;DHT22;3942;51.518;6.912;2023-08-21T12:59:09;27.30;99.90
7796;DHT22;3942;51.518;6.912;2023-08-21T13:04:12;27.40;99.90
7796;DHT22;3942;51.518;6.912;2023-08-21T13:09:14;27.10;99.90
7796;DHT22;3942;51.518;6.912;2023-08-21T13:14:16;27.30;99.90
7796;DHT22;3942;51.518;6.912;2023-08-21T13:19:19;27.20;99.90
7796;DHT22;3942;51.518;6.912;2023-08-21T13:24:21;27.30;99.90
7796;DHT22;3942;51.518;6.912;2023-08-21T13:29:23;27.30;99.90
7796;DHT22;3942;51.518;6.912;2023-08-21T13:34:26;27.40;99.90
7796;DHT22;3942;51.518;6.912;2023-08-21T13:39:28;27.40;99.90
7796;DHT22;3942;51.518;6.912;2023-08-21T13:44:31;27.10;99.90
7796;DHT22;3942;51.518;6.912;2023-08-21T13:49:34;27.00;99.90
7796;DHT22;3942;51.518;6.912;2023-08-21T13:54:36;27.20;1.00
7796;DHT22;3942;51.518;6.912;2023-08-21T14:04:41;27.00;1.00
7796;DHT22;3942;51.518;6.912;2023-08-21T14:14:46;27.00;1.00
7796;DHT22;3942;51.518;6.912;2023-08-21T14:19:49;27.00;1.00
7796;DHT22;3942;51.518;6.912;2023-08-21T14:24:51;27.20;1.00
7796;DHT22;3942;51.518;6.912;2023-08-21T14:29:52;27.10;99.90
7796;DHT22;3942;51.518;6.912;2023-08-21T14:34:56;27.10;1.00
7796;DHT22;3942;51.518;6.912;2023-08-21T14:39:57;27.40;1.00
7796;DHT22;3942;51.518;6.912;2023-08-21T14:44:59;27.30;99.90
7796;DHT22;3942;51.518;6.912;2023-08-21T14:50:03;27.20;99.90
7796;DHT22;3942;51.518;6.912;2023-08-21T14:55:05;27.10;99.90
7796;DHT22;3942;51.518;6.912;2023-08-21T15:00:08;27.00;1.00
7796;DHT22;3942;51.518;6.912;2023-08-21T15:05:12;27.00;1.00
7796;DHT22;3942;51.518;6.912;2023-08-21T15:15:19;27.10;1.00
7796;DHT22;3942;51.518;6.912;2023-08-21T15:20:22;27.10;1.00
7796;DHT22;3942;51.518;6.912;2023-08-21T15:25:24;27.10;1.00
7796;DHT22;3942;51.518;6.912;2023-08-21T15:30:26;27.10;1.00
7796;DHT22;3942;51.518;6.912;2023-08-21T15:35:29;27.10;1.00
7796;DHT22;3942;51.518;6.912;2023-08-21T15:50:37;27.10;99.90
7796;DHT22;3942;51.518;6.912;2023-08-21T15:55:38;27.00;1.00
7796;DHT22;3942;51.518;6.912;2023-08-21T16:00:40;27.00;1.00
7796;DHT22;3942;51.518;6.912;2023-08-21T16:05:43;27.00;1.00
7796;DHT22;3942;51.518;6.912;2023-08-21T16:10:45;26.90;1.00
7796;DHT22;3942;51.518;6.912;2023-08-21T16:15:47;26.90;1.00
7796;DHT22;3942;51.518;6.912;2023-08-21T16:20:50;26.90;1.00
7796;DHT22;3942;51.518;6.912;2023-08-21T16:25:52;27.00;1.00
7796;DHT22;3942;51.518;6.912;2023-08-21T16:35:58;26.90;1.00
7796;DHT22;3942;51.518;6.912;2023-08-21T16:41:00;26.90;1.00
7796;DHT22;3942;51.518;6.912;2023-08-21T16:46:01;26.80;1.00
7796;DHT22;3942;51.518;6.912;2023-08-21T16:51:05;26.80;1.00
7796;DHT22;3942;51.518;6.912;2023-08-21T17:06:12;26.70;1.00
7796;DHT22;3942;51.518;6.912;2023-08-21T17:11:15;26.70;1.00
7796;DHT22;3942;51.518;6.912;2023-08-21T17:16:18;26.60;1.00
7796;DHT22;3942;51.518;6.912;2023-08-21T17:21:21;26.50;1.00
7796;DHT22;3942;51.518;6.912;2023-08-21T17:26:23;26.50;1.00
7796;DHT22;3942;51.518;6.912;2023-08-21T17:36:29;26.50;1.00
7796;DHT22;3942;51.518;6.912;2023-08-21T17:41:31;26.40;1.00
7796;DHT22;3942;51.518;6.912;2023-08-21T17:46:33;26.30;1.00
7796;DHT22;3942;51.518;6.912;2023-08-21T17:51:36;26.30;1.00
7796;DHT22;3942;51.518;6.912;2023-08-21T17:56:38;26.30;1.00
7796;DHT22;3942;51.518;6.912;2023-08-21T18:01:41;26.10;1.00
7796;DHT22;3942;51.518;6.912;2023-08-21T18:06:44;26.10;1.00
7796;DHT22;3942;51.518;6.912;2023-08-21T18:11:46;26.10;1.00
7796;DHT22;3942;51.518;6.912;2023-08-21T18:16:49;26.10;1.00
7796;DHT22;3942;51.518;6.912;2023-08-21T18:32:02;25.90;1.00
7796;DHT22;3942;51.518;6.912;2023-08-21T18:42:12;25.60;1.00
7796;DHT22;3942;51.518;6.912;2023-08-21T18:47:13;25.70;1.00
7796;DHT22;3942;51.518;6.912;2023-08-21T18:52:17;25.70;1.00
7796;DHT22;3942;51.518;6.912;2023-08-21T19:07:26;25.60;1.00
7796;DHT22;3942;51.518;6.912;2023-08-21T19:12:28;25.40;1.00
7796;DHT22;3942;51.518;6.912;2023-08-21T19:17:30;25.10;1.00
7796;DHT22;3942;51.518;6.912;2023-08-21T19:27:35;25.40;81.50
7796;DHT22;3942;51.518;6.912;2023-08-21T20:53:26;24.10;99.90
7796;DHT22;3942;51.518;6.912;2023-08-21T21:44:11;23.50;99.90
7796;DHT22;3942;51.518;6.912;2023-08-21T21:49:12;23.20;99.90
7796;DHT22;3942;51.518;6.912;2023-08-21T22:24:32;22.80;1.00
7796;DHT22;3942;51.518;6.912;2023-08-21T22:34:37;22.60;99.90
7796;DHT22;3942;51.518;6.912;2023-08-21T22:39:40;22.80;99.90
7796;DHT22;3942;51.518;6.912;2023-08-21T22:44:42;22.40;99.90
7796;DHT22;3942;51.518;6.912;2023-08-21T23:09:56;22.40;1.00
7796;DHT22;3942;51.518;6.912;2023-08-21T23:14:58;22.30;1.00
7796;DHT22;3942;51.518;6.912;2023-08-21T23:19:59;22.20;1.00
7796;DHT22;3942;51.518;6.912;2023-08-21T23:50:19;22.50;1.00
7796;DHT22;3942;51.518;6.912;2023-08-21T23:55:22;22.00;1.00
